Latest Weather Observations for Willis Island

IDQ60801

Issued at 10:02 am EST Thursday 5 March 2015 (issued every 30 minutes, with the page automatically refreshed every 10 minutes)

About weather observations | Map of weather stations | Latest weather observations for QLD | Other Formats
Station Details ID: 200283 Name: WILLIS ISLAND Lat: -16.29 Lon: 149.97 Height: 9.29 m
Data from the previous 72 hours. | See also: Recent months at Willis Island
Date/Time
EST
Temp
°C
App
Temp
°C
Dew
Point
Rel
Hum
%
Delta-T
°C
Wind Press
QNH
hPa
Press
MSL
hPa
Rain
since 9 am
mm
Dir
 
Spd
km/h
Gust
km/h
Spd
kts
Gust
kts
05/10:00am 29.9 32.2 25.1 75 3.4 ESE 22 28 12 15 1009.5 - 0.0
05/09:30am 29.9 32.4 26.0 79 2.8 ESE 24 28 13 15 1009.5 - 0.0
05/09:00am 30.0 33.6 26.1 79 2.8 ESE 19 20 10 11 1009.4 1009.4 4.2
05/08:30am 29.5 31.9 25.2 77 3.0 ESE 22 26 12 14 1009.3 - 4.2
05/08:00am 28.6 31.2 25.5 83 2.2 ESE 22 28 12 15 1009.4 - 4.2
05/07:30am 27.8 30.8 25.5 87 1.6 ESE 20 20 11 11 1009.1 - 4.2
05/07:00am 26.9 28.2 24.0 84 2.0 SE 24 30 13 16 1008.5 - 4.2
05/06:30am 27.8 31.3 25.4 87 1.7 ESE 17 20 9 11 1008.2 - 4.2
05/06:00am 27.5 31.0 25.5 89 1.4 ESE 17 19 9 10 1008.0 1008.0 4.2
05/05:30am 27.4 30.8 25.3 88 1.5 ESE 17 20 9 11 1007.5 - 4.2
05/05:00am 27.0 29.2 24.9 88 1.5 ESE 22 26 12 14 1007.3 - 4.2
05/04:30am 27.6 30.6 25.5 88 1.5 E 20 26 11 14 1007.0 - 4.2
05/04:00am 27.6 29.6 25.2 87 1.7 ESE 24 28 13 15 1006.9 - 4.2
05/03:30am 27.4 29.4 25.1 87 1.6 ESE 24 28 13 15 1007.0 - 4.2
05/03:00am 27.5 30.4 25.4 88 1.5 SE 20 24 11 13 1007.0 1007.0 4.2
05/02:30am 27.5 30.0 25.4 88 1.5 ESE 22 26 12 14 1007.2 - 4.2
05/02:00am 27.4 29.0 25.1 87 1.6 SE 26 30 14 16 1007.5 - 4.2
05/01:30am 26.5 29.3 24.9 91 1.1 ESE 19 26 10 14 1007.8 - 4.2
05/01:00am 28.0 29.9 25.0 84 2.1 ESE 24 28 13 15 1008.1 - 0.0
05/12:30am 28.1 29.2 25.0 83 2.2 SE 28 32 15 17 1008.5 - 0.0
05/12:00am 28.1 29.3 25.1 84 2.1 SE 28 32 15 17 1008.9 1008.9 0.0
 
Date/Time
EST
Temp
°C
App
Temp
°C
Dew
Point
Rel
Hum
%
Delta-T
°C
Wind Press
QNH
hPa
Press
MSL
hPa
Rain
since 9 am
mm
Dir
 
Spd
km/h
Gust
km/h
Spd
kts
Gust
kts
04/11:30pm 28.1 29.0 25.3 85 2.0 ESE 30 35 16 19 1008.9 - 0.0
04/11:00pm 28.1 29.3 25.1 84 2.1 ESE 28 32 15 17 1009.1 - 0.0
04/10:30pm 28.2 29.5 25.2 84 2.1 SE 28 33 15 18 1009.4 - 0.0
04/10:00pm 28.2 29.4 25.1 83 2.2 ESE 28 32 15 17 1009.2 - 0.0
04/09:30pm 28.2 29.3 24.9 82 2.3 SE 28 32 15 17 1009.3 - 0.0
04/09:00pm 28.2 29.2 24.8 82 2.4 SE 28 30 15 16 1009.1 1009.1 0.0
04/08:30pm 28.3 29.6 24.7 81 2.5 SE 26 32 14 17 1008.9 - 0.0
04/08:00pm 28.5 29.9 24.8 80 2.6 SE 26 32 14 17 1008.7 - 0.0
04/07:30pm 28.3 30.8 24.7 81 2.5 SE 20 26 11 14 1008.7 - 0.0
04/07:00pm 28.3 30.2 24.4 79 2.7 SE 22 24 12 13 1008.3 - 0.0
04/06:30pm 28.4 30.4 24.5 79 2.7 SE 22 26 12 14 1007.8 - 0.0
04/06:00pm 28.6 30.1 24.3 77 3.0 ESE 24 26 13 14 1007.7 1007.7 0.0
04/05:30pm 29.0 31.0 24.6 77 3.1 ESE 22 30 12 16 1007.3 - 0.0
04/05:00pm 29.4 31.7 25.0 77 3.1 SE 22 28 12 15 1007.1 - 0.0
04/04:30pm 29.6 31.3 24.6 74 3.5 ESE 24 28 13 15 1007.0 - 0.0
04/04:00pm 30.0 31.7 24.7 73 3.7 ESE 24 28 13 15 1006.9 - 0.0
04/03:30pm 30.1 31.4 24.7 73 3.8 ESE 26 32 14 17 1006.8 - 0.0
04/03:00pm 30.6 32.3 24.6 70 4.2 ESE 24 30 13 16 1006.9 1006.9 0.0
04/02:30pm 30.6 32.2 24.5 70 4.3 ESE 24 30 13 16 1007.2 - 0.0
04/02:00pm 30.5 31.7 24.5 70 4.2 ESE 26 30 14 16 1007.6 - 0.0
04/01:30pm 30.9 32.9 24.6 69 4.4 ESE 22 26 12 14 1008.0 - 0.0
04/01:00pm 30.9 32.6 24.6 69 4.4 ESE 24 28 13 15 1008.3 - 0.0
04/12:30pm 30.4 31.9 24.4 70 4.2 ESE 24 28 13 15 1008.9 - 0.0
04/12:00pm 30.6 31.9 24.6 70 4.2 ESE 26 32 14 17 1009.2 1009.2 0.0
04/11:30am 30.7 31.8 24.4 69 4.4 ESE 26 30 14 16 1009.4 - 0.0
04/11:00am 30.4 31.0 24.1 69 4.4 ESE 28 33 15 18 1009.6 - 0.0
04/10:30am 30.0 30.4 24.4 72 3.9 ESE 30 35 16 19 1009.7 - 0.0
04/10:00am 30.1 30.9 24.4 71 4.0 E 28 33 15 18 1009.8 - 0.0
04/09:30am 30.1 30.4 23.6 68 4.5 ESE 28 33 15 18 1009.8 - 0.0
04/09:00am 29.7 30.2 23.9 71 4.0 ESE 28 32 15 17 1009.8 1009.8 0.0
04/08:30am 29.7 30.2 23.9 71 4.0 ESE 28 33 15 18 1009.4 - 0.0
04/08:00am 29.2 29.4 23.4 71 4.0 ESE 28 32 15 17 1009.1 - 0.0
04/07:30am 29.0 29.1 23.9 74 3.5 SE 30 33 16 18 1008.7 - 0.0
04/07:00am 28.1 28.3 23.4 75 3.2 ESE 28 32 15 17 1008.2 - 0.0
04/06:30am 27.9 28.0 23.2 75 3.2 SE 28 33 15 18 1007.6 - 0.0
04/06:00am 27.7 27.2 22.9 75 3.3 SE 30 32 16 17 1007.3 1007.3 0.0
04/05:30am 27.7 27.6 23.5 78 2.9 SE 30 33 16 18 1007.0 - 0.0
04/05:00am 27.7 27.1 23.3 77 3.0 ESE 32 35 17 19 1006.9 - 0.0
04/04:30am 27.7 27.1 23.3 77 3.0 ESE 32 35 17 19 1006.7 - 0.0
04/04:00am 27.8 27.0 23.3 76 3.1 ESE 33 37 18 20 1006.7 - 0.0
04/03:30am 27.7 27.4 23.8 79 2.7 ESE 32 39 17 21 1006.9 - 0.0
04/03:00am 27.7 27.0 23.5 78 2.9 ESE 33 37 18 20 1007.1 1007.1 0.0
04/02:30am 27.6 27.4 24.0 81 2.5 ESE 32 35 17 19 1007.5 - 0.0
04/02:00am 27.7 26.9 23.3 77 3.0 ESE 33 39 18 21 1007.8 - 0.0
04/01:30am 27.8 27.4 23.7 78 2.8 SE 32 39 17 21 1008.2 - 0.0
04/01:00am 27.7 27.1 23.3 77 3.0 SE 32 39 17 21 1008.5 - 0.0
04/12:30am 27.8 26.4 23.0 75 3.3 ESE 35 41 19 22 1009.0 - 0.0
04/12:00am 28.0 27.2 23.3 75 3.2 ESE 33 41 18 22 1009.3 1009.3 0.0
 
Date/Time
EST
Temp
°C
App
Temp
°C
Dew
Point
Rel
Hum
%
Delta-T
°C
Wind Press
QNH
hPa
Press
MSL
hPa
Rain
since 9 am
mm
Dir
 
Spd
km/h
Gust
km/h
Spd
kts
Gust
kts
03/11:30pm 28.0 26.7 23.2 75 3.3 SE 35 41 19 22 1009.5 - 0.0
03/11:00pm 28.0 27.5 23.8 78 2.9 SE 33 39 18 21 1009.6 - 0.0
03/10:30pm 28.0 27.1 23.8 78 2.9 ESE 35 43 19 23 1009.6 - 0.0
03/10:00pm 28.0 27.7 23.9 78 2.8 SE 32 35 17 19 1009.7 - 0.0
03/09:30pm 28.0 27.5 23.6 77 3.0 ESE 32 35 17 19 1009.7 - 0.0
03/09:00pm 27.9 27.5 24.1 80 2.6 SE 33 37 18 20 1009.5 1009.5 0.0
03/08:30pm 28.2 28.1 24.3 79 2.7 SE 32 37 17 20 1009.1 - 0.0
03/08:00pm 28.1 27.5 23.4 75 3.2 SE 32 35 17 19 1008.8 - 0.0
03/07:30pm 28.1 27.1 22.7 72 3.7 SE 32 39 17 21 1008.4 - 0.0
03/07:00pm 28.1 27.0 22.8 73 3.6 SE 33 39 18 21 1008.0 - 0.0
03/06:30pm 28.1 27.5 23.4 75 3.2 SE 32 37 17 20 1007.8 - 0.0
03/06:00pm 28.2 27.8 23.7 76 3.1 SE 32 37 17 20 1007.6 1007.6 0.0
03/05:30pm 28.5 27.7 23.4 74 3.5 SE 33 37 18 20 1007.3 - 0.0
03/05:00pm 28.8 28.0 23.4 72 3.7 SE 33 37 18 20 1006.9 - 0.0
03/04:30pm 29.6 29.4 24.0 72 3.9 SE 32 35 17 19 1006.8 - 0.0
03/04:00pm 29.6 29.2 23.7 70 4.1 SSE 32 35 17 19 1006.9 - 0.0
03/03:30pm 30.0 30.1 24.0 70 4.2 SE 30 35 16 19 1006.9 - 0.0
03/03:00pm 30.1 30.0 23.6 68 4.5 SE 30 35 16 19 1007.0 1007.0 0.0
03/02:30pm 30.3 30.0 23.3 66 4.8 SE 30 35 16 19 1007.3 - 0.0
03/02:00pm 30.5 30.6 24.0 68 4.5 SE 30 35 16 19 1007.4 - 0.0
03/01:30pm 30.3 29.9 23.7 68 4.6 SE 32 37 17 20 1007.7 - 0.0
03/01:00pm 30.1 30.3 24.1 70 4.2 SSE 30 35 16 19 1008.2 - 0.0
03/12:30pm 29.9 29.5 24.6 73 3.7 SSE 35 37 19 20 1008.7 - 0.0
03/12:00pm 30.2 29.7 23.5 67 4.6 ESE 32 35 17 19 1008.9 1008.9 0.0
03/11:30am 29.7 29.9 24.1 72 3.9 ESE 30 37 16 20 1009.2 - 0.0
03/11:00am 30.7 31.3 24.1 68 4.6 SE 28 33 15 18 1009.4 - 0.0
03/10:30am 30.3 30.7 23.7 68 4.6 ESE 28 32 15 17 1009.6 - 0.0
03/10:00am 30.1 31.0 23.9 69 4.3 SE 26 32 14 17 1009.7 - 0.0
03/09:30am 30.0 30.0 23.0 66 4.8 SE 28 32 15 17 1009.5 - 0.0
03/09:00am 28.8 28.5 22.6 69 4.2 ESE 28 32 15 17 1009.4 1009.4 0.2
03/08:30am 29.4 29.2 22.8 67 4.5 SE 28 32 15 17 1009.3 - 0.2
03/08:00am 28.1 27.9 22.8 73 3.6 SE 28 32 15 17 1009.0 - 0.2
03/07:30am 28.6 28.2 23.0 71 3.8 SE 30 33 16 18 1008.7 - 0.2
03/07:00am 28.1 27.3 22.3 70 3.9 SE 30 33 16 18 1008.3 - 0.2
03/06:30am 27.6 27.0 22.6 74 3.4 SE 30 35 16 19 1008.0 - 0.2
03/06:00am 27.2 26.3 22.9 77 2.9 SE 32 35 17 19 1007.7 1007.7 0.2
03/05:30am 27.1 26.4 22.5 76 3.1 SE 30 35 16 19 1007.3 - 0.2
03/05:00am 26.9 27.1 23.5 81 2.3 SE 28 32 15 17 1007.1 - 0.2
03/04:30am 27.4 26.4 22.7 75 3.2 SE 32 35 17 19 1007.0 - 0.0
03/04:00am 27.2 26.8 23.1 78 2.8 ESE 30 35 16 19 1006.9 - 0.0
03/03:30am 27.4 27.0 22.4 74 3.4 SE 28 33 15 18 1007.1 - 0.0
03/03:00am 27.5 26.9 22.6 74 3.3 SE 30 35 16 19 1007.3 1007.3 0.0
03/02:30am 27.3 27.4 22.6 75 3.2 SE 26 30 14 16 1007.5 - 0.0
03/02:00am 27.4 26.0 21.2 69 4.1 SSE 30 35 16 19 1007.8 - 0.0
03/01:30am 27.4 26.6 22.4 74 3.4 SE 30 33 16 18 1008.1 - 0.0
03/01:00am 27.4 26.8 22.0 72 3.6 SE 28 33 15 18 1008.5 - 0.0
03/12:30am 27.4 26.4 21.9 72 3.7 SE 30 33 16 18 1008.6 - 0.0
03/12:00am 27.5 26.3 21.5 70 4.0 SE 30 35 16 19 1008.8 1008.8 0.0
 
Date/Time
EST
Temp
°C
App
Temp
°C
Dew
Point
Rel
Hum
%
Delta-T
°C
Wind Press
QNH
hPa
Press
MSL
hPa
Rain
since 9 am
mm
Dir
 
Spd
km/h
Gust
km/h
Spd
kts
Gust
kts
02/11:30pm 27.6 26.6 21.9 71 3.8 SSE 30 35 16 19 1009.1 - 0.0
02/11:00pm 27.7 26.7 22.7 74 3.4 SE 32 37 17 20 1009.0 - 0.0
02/10:30pm 27.7 26.6 22.5 73 3.5 SE 32 37 17 20 1009.1 - 0.0
02/10:00pm 27.0 27.0 23.8 82 2.2 E 30 39 16 21 1008.8 - 0.0
02/09:30pm 27.7 26.2 22.1 71 3.8 SE 33 39 18 21 1009.0 - 0.0
02/09:00pm 27.8 26.6 22.3 72 3.7 SSE 32 35 17 19 1008.6 1008.6 0.0
02/08:30pm 28.0 27.1 22.2 70 3.9 SSE 30 33 16 18 1008.3 - 0.0
02/08:00pm 27.9 28.6 22.9 74 3.4 SSE 24 30 13 16 1008.0 - 0.0
02/07:30pm 27.8 27.5 21.8 70 4.0 SSE 26 30 14 16 1007.7 - 0.0
02/07:00pm 27.8 27.7 22.2 71 3.8 S 26 32 14 17 1007.6 - 0.0
02/06:30pm 27.8 28.0 22.0 70 3.9 S 24 30 13 16 1007.2 - 0.0
02/06:00pm 28.3 28.4 22.6 71 3.9 S 26 30 14 16 1006.8 1006.8 0.0
02/05:30pm 28.6 29.0 22.4 69 4.2 S 24 30 13 16 1006.9 - 0.0
02/05:00pm 29.1 28.8 21.8 64 4.9 S 26 30 14 16 1006.7 - 0.0
02/04:30pm 29.2 28.6 21.3 62 5.3 S 26 30 14 16 1006.7 - 0.0
02/04:00pm 29.5 29.1 21.0 60 5.7 S 24 30 13 16 1006.5 - 0.0
02/03:30pm 29.7 29.1 22.0 63 5.2 S 28 33 15 18 1006.6 - 0.0
02/03:00pm 30.1 29.9 22.1 62 5.4 S 26 32 14 17 1006.5 1006.5 0.0
02/02:30pm 29.7 30.0 22.3 64 5.0 S 24 28 13 15 1006.6 - 0.0
02/02:00pm 30.0 31.4 22.8 65 4.9 SSE 20 24 11 13 1006.7 - 0.0
02/01:30pm 30.0 31.6 23.2 67 4.7 S 20 24 11 13 1007.1 - 0.0
02/01:00pm 29.8 30.9 22.3 64 5.1 S 20 22 11 12 1007.7 - 0.0
02/12:30pm 29.9 31.0 22.4 64 5.1 S 20 22 11 12 1008.1 - 0.0
02/12:00pm 30.2 31.8 21.4 59 5.9 SSE 15 17 8 9 1008.4 1008.4 0.0
02/11:30am 29.7 31.6 21.3 60 5.6 SSE 13 19 7 10 1008.6 - 0.0
02/11:00am 29.9 32.7 24.3 72 3.9 S 17 20 9 11 1008.8 - 0.0
02/10:30am 29.3 30.7 21.9 64 5.0 S 17 20 9 11 1008.9 - 0.0

Other Formats:

Comma delimited format used in spreadsheet applications
http://www.bom.gov.au/fwo/IDQ60801/IDQ60801.94299.axf

JavaScript Object Notation format (JSON) in row-major order
http://www.bom.gov.au/fwo/IDQ60801/IDQ60801.94299.json